sensor_id;sensor_type;location;lat;lon;timestamp;temperature;humidity
61412;DHT22;47278;49.732;7.690;2022-09-29T00:01:11;6.10;99.90
61412;DHT22;47278;49.732;7.690;2022-09-29T00:03:38;6.10;99.90
61412;DHT22;47278;49.732;7.690;2022-09-29T00:06:11;6.10;99.90
61412;DHT22;47278;49.732;7.690;2022-09-29T00:08:37;6.00;99.90
61412;DHT22;47278;49.732;7.690;2022-09-29T00:11:07;5.80;99.90
61412;DHT22;47278;49.732;7.690;2022-09-29T00:13:33;5.80;99.90
61412;DHT22;47278;49.732;7.690;2022-09-29T00:16:00;5.70;99.90
61412;DHT22;47278;49.732;7.690;2022-09-29T00:18:27;5.70;99.90
61412;DHT22;47278;49.732;7.690;2022-09-29T00:23:23;5.70;99.90
61412;DHT22;47278;49.732;7.690;2022-09-29T00:26:01;5.60;99.90
61412;DHT22;47278;49.732;7.690;2022-09-29T00:28:28;5.40;99.90
61412;DHT22;47278;49.732;7.690;2022-09-29T00:30:54;5.50;99.90
61412;DHT22;47278;49.732;7.690;2022-09-29T00:33:19;5.50;99.90
61412;DHT22;47278;49.732;7.690;2022-09-29T00:35:55;5.50;99.90
61412;DHT22;47278;49.732;7.690;2022-09-29T00:38:21;5.50;99.90
61412;DHT22;47278;49.732;7.690;2022-09-29T00:40:46;5.40;99.90
61412;DHT22;47278;49.732;7.690;2022-09-29T00:43:46;5.50;99.90
61412;DHT22;47278;49.732;7.690;2022-09-29T00:46:01;5.60;99.90
61412;DHT22;47278;49.732;7.690;2022-09-29T00:48:30;5.50;99.90
61412;DHT22;47278;49.732;7.690;2022-09-29T00:50:58;5.30;99.90
61412;DHT22;47278;49.732;7.690;2022-09-29T00:53:25;5.40;99.90
61412;DHT22;47278;49.732;7.690;2022-09-29T00:56:11;5.40;99.90
61412;DHT22;47278;49.732;7.690;2022-09-29T00:58:43;5.40;99.90
61412;DHT22;47278;49.732;7.690;2022-09-29T01:01:12;5.40;99.90
61412;DHT22;47278;49.732;7.690;2022-09-29T01:03:42;5.40;99.90
61412;DHT22;47278;49.732;7.690;2022-09-29T01:06:14;5.50;99.90
61412;DHT22;47278;49.732;7.690;2022-09-29T01:08:50;5.60;99.90
61412;DHT22;47278;49.732;7.690;2022-09-29T01:11:19;5.70;99.90
61412;DHT22;47278;49.732;7.690;2022-09-29T01:13:46;5.80;99.90
61412;DHT22;47278;49.732;7.690;2022-09-29T01:16:13;5.80;99.90
61412;DHT22;47278;49.732;7.690;2022-09-29T01:18:38;5.90;99.90
61412;DHT22;47278;49.732;7.690;2022-09-29T01:21:15;6.00;99.90
61412;DHT22;47278;49.732;7.690;2022-09-29T01:32:56;5.90;99.90
61412;DHT22;47278;49.732;7.690;2022-09-29T01:47:11;5.80;99.90
61412;DHT22;47278;49.732;7.690;2022-09-29T01:49:42;5.80;99.90
61412;DHT22;47278;49.732;7.690;2022-09-29T01:52:14;5.90;99.90
61412;DHT22;47278;49.732;7.690;2022-09-29T01:54:46;5.90;99.90
61412;DHT22;47278;49.732;7.690;2022-09-29T01:57:30;6.00;99.90
61412;DHT22;47278;49.732;7.690;2022-09-29T02:02:33;6.00;99.90
61412;DHT22;47278;49.732;7.690;2022-09-29T02:05:04;6.00;99.90
61412;DHT22;47278;49.732;7.690;2022-09-29T02:07:36;6.70;99.90
61412;DHT22;47278;49.732;7.690;2022-09-29T02:12:43;5.90;99.90
61412;DHT22;47278;49.732;7.690;2022-09-29T02:15:13;5.90;99.90
61412;DHT22;47278;49.732;7.690;2022-09-29T02:17:42;6.00;99.90
61412;DHT22;47278;49.732;7.690;2022-09-29T02:20:11;5.90;99.90
61412;DHT22;47278;49.732;7.690;2022-09-29T02:22:37;6.00;99.90
61412;DHT22;47278;49.732;7.690;2022-09-29T02:25:04;6.00;99.90
61412;DHT22;47278;49.732;7.690;2022-09-29T02:27:32;5.90;99.90
61412;DHT22;47278;49.732;7.690;2022-09-29T02:29:58;5.80;99.90
61412;DHT22;47278;49.732;7.690;2022-09-29T02:32:24;5.50;99.90
61412;DHT22;47278;49.732;7.690;2022-09-29T02:34:51;5.80;99.90
61412;DHT22;47278;49.732;7.690;2022-09-29T02:48:42;5.80;99.90
61412;DHT22;47278;49.732;7.690;2022-09-29T02:51:16;5.80;99.90
61412;DHT22;47278;49.732;7.690;2022-09-29T02:56:43;5.80;99.90
61412;DHT22;47278;49.732;7.690;2022-09-29T02:59:56;5.80;99.90
61412;DHT22;47278;49.732;7.690;2022-09-29T03:02:01;5.70;99.90
61412;DHT22;47278;49.732;7.690;2022-09-29T03:04:27;5.80;99.90
61412;DHT22;47278;49.732;7.690;2022-09-29T03:06:53;5.70;99.90
61412;DHT22;47278;49.732;7.690;2022-09-29T03:09:19;5.70;99.90
61412;DHT22;47278;49.732;7.690;2022-09-29T03:11:45;5.80;99.90
61412;DHT22;47278;49.732;7.690;2022-09-29T03:14:11;5.70;99.90
61412;DHT22;47278;49.732;7.690;2022-09-29T03:16:37;5.70;99.90
61412;DHT22;47278;49.732;7.690;2022-09-29T03:19:04;5.70;99.90
61412;DHT22;47278;49.732;7.690;2022-09-29T03:21:30;5.70;99.90
61412;DHT22;47278;49.732;7.690;2022-09-29T03:23:56;5.70;99.90
61412;DHT22;47278;49.732;7.690;2022-09-29T03:26:22;5.60;99.90
61412;DHT22;47278;49.732;7.690;2022-09-29T03:28:50;5.50;99.90
61412;DHT22;47278;49.732;7.690;2022-09-29T03:31:15;5.60;99.90
61412;DHT22;47278;49.732;7.690;2022-09-29T03:33:41;5.70;99.90
61412;DHT22;47278;49.732;7.690;2022-09-29T03:36:07;5.70;99.90
61412;DHT22;47278;49.732;7.690;2022-09-29T03:38:39;5.80;99.90
61412;DHT22;47278;49.732;7.690;2022-09-29T03:41:05;5.80;99.90
61412;DHT22;47278;49.732;7.690;2022-09-29T03:43:31;5.80;99.90
61412;DHT22;47278;49.732;7.690;2022-09-29T03:45:57;5.70;99.90
61412;DHT22;47278;49.732;7.690;2022-09-29T03:48:23;5.60;99.90
61412;DHT22;47278;49.732;7.690;2022-09-29T03:50:50;5.70;99.90
61412;DHT22;47278;49.732;7.690;2022-09-29T03:53:16;5.70;99.90
61412;DHT22;47278;49.732;7.690;2022-09-29T03:55:46;5.70;99.90
61412;DHT22;47278;49.732;7.690;2022-09-29T03:58:16;5.70;99.90
61412;DHT22;47278;49.732;7.690;2022-09-29T04:00:42;5.80;99.90
61412;DHT22;47278;49.732;7.690;2022-09-29T04:03:08;5.70;99.90
61412;DHT22;47278;49.732;7.690;2022-09-29T04:05:34;5.80;99.90
61412;DHT22;47278;49.732;7.690;2022-09-29T04:08:06;5.80;99.90
61412;DHT22;47278;49.732;7.690;2022-09-29T04:10:36;5.80;99.90
61412;DHT22;47278;49.732;7.690;2022-09-29T04:13:03;5.90;99.90
61412;DHT22;47278;49.732;7.690;2022-09-29T04:15:29;5.80;99.90
61412;DHT22;47278;49.732;7.690;2022-09-29T04:17:55;5.80;99.90
61412;DHT22;47278;49.732;7.690;2022-09-29T04:20:21;5.80;99.90
61412;DHT22;47278;49.732;7.690;2022-09-29T04:22:46;5.90;99.90
61412;DHT22;47278;49.732;7.690;2022-09-29T04:25:12;5.80;99.90
61412;DHT22;47278;49.732;7.690;2022-09-29T04:27:38;5.90;99.90
61412;DHT22;47278;49.732;7.690;2022-09-29T04:30:05;8.50;99.90
61412;DHT22;47278;49.732;7.690;2022-09-29T04:32:31;6.00;99.90
61412;DHT22;47278;49.732;7.690;2022-09-29T04:34:57;6.00;99.90
61412;DHT22;47278;49.732;7.690;2022-09-29T04:37:22;5.90;99.90
61412;DHT22;47278;49.732;7.690;2022-09-29T04:39:48;6.00;99.90
61412;DHT22;47278;49.732;7.690;2022-09-29T04:42:14;6.00;99.90
61412;DHT22;47278;49.732;7.690;2022-09-29T04:44:39;5.80;99.90
61412;DHT22;47278;49.732;7.690;2022-09-29T04:47:05;8.40;99.90
61412;DHT22;47278;49.732;7.690;2022-09-29T04:49:31;5.30;99.90
61412;DHT22;47278;49.732;7.690;2022-09-29T04:51:56;5.80;99.90
61412;DHT22;47278;49.732;7.690;2022-09-29T04:54:22;5.90;99.90
61412;DHT22;47278;49.732;7.690;2022-09-29T04:56:48;5.90;99.90
61412;DHT22;47278;49.732;7.690;2022-09-29T04:59:14;5.90;99.90
61412;DHT22;47278;49.732;7.690;2022-09-29T05:01:42;5.90;99.90
61412;DHT22;47278;49.732;7.690;2022-09-29T05:04:08;5.80;99.90
61412;DHT22;47278;49.732;7.690;2022-09-29T05:06:35;5.90;99.90
61412;DHT22;47278;49.732;7.690;2022-09-29T05:09:04;5.90;99.90
61412;DHT22;47278;49.732;7.690;2022-09-29T05:11:30;6.00;99.90
61412;DHT22;47278;49.732;7.690;2022-09-29T05:13:56;6.00;99.90
61412;DHT22;47278;49.732;7.690;2022-09-29T05:16:23;6.00;99.90
61412;DHT22;47278;49.732;7.690;2022-09-29T05:18:49;6.10;99.90
61412;DHT22;47278;49.732;7.690;2022-09-29T05:21:15;6.10;99.90
61412;DHT22;47278;49.732;7.690;2022-09-29T05:23:41;6.00;99.90
61412;DHT22;47278;49.732;7.690;2022-09-29T05:26:09;6.00;99.90
61412;DHT22;47278;49.732;7.690;2022-09-29T05:28:35;6.00;99.90
61412;DHT22;47278;49.732;7.690;2022-09-29T05:31:06;6.00;99.90
61412;DHT22;47278;49.732;7.690;2022-09-29T05:33:32;6.10;99.90
61412;DHT22;47278;49.732;7.690;2022-09-29T05:35:58;6.10;99.90
61412;DHT22;47278;49.732;7.690;2022-09-29T05:38:24;6.10;99.90
61412;DHT22;47278;49.732;7.690;2022-09-29T05:40:51;6.20;99.90
61412;DHT22;47278;49.732;7.690;2022-09-29T05:43:20;6.20;99.90
61412;DHT22;47278;49.732;7.690;2022-09-29T05:45:46;6.20;99.90
61412;DHT22;47278;49.732;7.690;2022-09-29T05:48:12;6.20;99.90
61412;DHT22;47278;49.732;7.690;2022-09-29T05:50:37;6.20;99.90
61412;DHT22;47278;49.732;7.690;2022-09-29T05:53:08;6.30;99.90
61412;DHT22;47278;49.732;7.690;2022-09-29T05:55:37;6.30;99.90
61412;DHT22;47278;49.732;7.690;2022-09-29T05:58:05;6.20;99.90
61412;DHT22;47278;49.732;7.690;2022-09-29T06:00:31;6.20;99.90
61412;DHT22;47278;49.732;7.690;2022-09-29T06:02:58;6.30;99.90
61412;DHT22;47278;49.732;7.690;2022-09-29T06:05:25;6.20;99.90
61412;DHT22;47278;49.732;7.690;2022-09-29T06:07:51;6.30;99.90
61412;DHT22;47278;49.732;7.690;2022-09-29T06:10:17;6.30;99.90
61412;DHT22;47278;49.732;7.690;2022-09-29T06:12:43;6.20;99.90
61412;DHT22;47278;49.732;7.690;2022-09-29T06:15:10;6.30;99.90
61412;DHT22;47278;49.732;7.690;2022-09-29T06:17:36;6.40;99.90
61412;DHT22;47278;49.732;7.690;2022-09-29T06:20:04;6.40;99.90
61412;DHT22;47278;49.732;7.690;2022-09-29T06:22:31;6.30;99.90
61412;DHT22;47278;49.732;7.690;2022-09-29T06:24:57;6.40;99.90
61412;DHT22;47278;49.732;7.690;2022-09-29T06:27:24;6.40;99.90
61412;DHT22;47278;49.732;7.690;2022-09-29T06:29:49;6.40;99.90
61412;DHT22;47278;49.732;7.690;2022-09-29T06:32:15;6.60;99.90
61412;DHT22;47278;49.732;7.690;2022-09-29T06:34:41;6.40;99.90
61412;DHT22;47278;49.732;7.690;2022-09-29T06:37:26;6.50;99.90
61412;DHT22;47278;49.732;7.690;2022-09-29T06:40:04;6.50;99.90
61412;DHT22;47278;49.732;7.690;2022-09-29T06:42:30;6.50;99.90
61412;DHT22;47278;49.732;7.690;2022-09-29T06:44:56;6.70;99.90
61412;DHT22;47278;49.732;7.690;2022-09-29T06:47:22;6.60;99.90
61412;DHT22;47278;49.732;7.690;2022-09-29T06:49:48;6.60;99.90
61412;DHT22;47278;49.732;7.690;2022-09-29T06:52:15;6.60;99.90
61412;DHT22;47278;49.732;7.690;2022-09-29T06:54:40;6.60;99.90
61412;DHT22;47278;49.732;7.690;2022-09-29T06:57:06;6.70;99.90
61412;DHT22;47278;49.732;7.690;2022-09-29T06:59:32;6.70;99.90
61412;DHT22;47278;49.732;7.690;2022-09-29T07:01:57;6.80;99.90
61412;DHT22;47278;49.732;7.690;2022-09-29T07:04:24;6.80;99.90
61412;DHT22;47278;49.732;7.690;2022-09-29T07:06:50;6.60;99.90
61412;DHT22;47278;49.732;7.690;2022-09-29T07:09:17;6.60;99.90
61412;DHT22;47278;49.732;7.690;2022-09-29T07:11:44;6.70;99.90
61412;DHT22;47278;49.732;7.690;2022-09-29T07:14:21;6.80;99.90
61412;DHT22;47278;49.732;7.690;2022-09-29T07:16:47;6.80;99.90
61412;DHT22;47278;49.732;7.690;2022-09-29T07:19:14;6.80;99.90
61412;DHT22;47278;49.732;7.690;2022-09-29T07:21:40;6.90;99.90
61412;DHT22;47278;49.732;7.690;2022-09-29T07:24:07;6.90;99.90
61412;DHT22;47278;49.732;7.690;2022-09-29T07:26:33;7.00;99.90
61412;DHT22;47278;49.732;7.690;2022-09-29T07:28:58;7.00;99.90
61412;DHT22;47278;49.732;7.690;2022-09-29T07:31:24;7.20;99.90
61412;DHT22;47278;49.732;7.690;2022-09-29T07:33:50;7.10;99.90
61412;DHT22;47278;49.732;7.690;2022-09-29T07:36:18;7.20;99.90
61412;DHT22;47278;49.732;7.690;2022-09-29T07:38:45;7.30;99.90
61412;DHT22;47278;49.732;7.690;2022-09-29T07:41:12;7.30;99.90
61412;DHT22;47278;49.732;7.690;2022-09-29T07:43:38;7.30;99.90
61412;DHT22;47278;49.732;7.690;2022-09-29T07:46:05;7.30;99.90
61412;DHT22;47278;49.732;7.690;2022-09-29T07:48:31;7.40;99.90
61412;DHT22;47278;49.732;7.690;2022-09-29T07:51:02;7.50;99.90
61412;DHT22;47278;49.732;7.690;2022-09-29T07:53:29;7.40;99.90
61412;DHT22;47278;49.732;7.690;2022-09-29T07:55:54;7.50;99.90
61412;DHT22;47278;49.732;7.690;2022-09-29T07:58:20;7.60;99.90
61412;DHT22;47278;49.732;7.690;2022-09-29T08:00:53;7.60;99.90
61412;DHT22;47278;49.732;7.690;2022-09-29T08:03:19;7.50;99.90
61412;DHT22;47278;49.732;7.690;2022-09-29T08:05:45;7.60;99.90
61412;DHT22;47278;49.732;7.690;2022-09-29T08:08:10;7.60;99.90
61412;DHT22;47278;49.732;7.690;2022-09-29T08:10:36;7.60;99.90
61412;DHT22;47278;49.732;7.690;2022-09-29T08:13:02;7.70;99.90
61412;DHT22;47278;49.732;7.690;2022-09-29T08:15:28;7.70;99.90
61412;DHT22;47278;49.732;7.690;2022-09-29T08:17:54;7.80;99.90
61412;DHT22;47278;49.732;7.690;2022-09-29T08:20:21;7.70;99.90
61412;DHT22;47278;49.732;7.690;2022-09-29T08:22:47;7.50;99.90
61412;DHT22;47278;49.732;7.690;2022-09-29T08:25:14;7.60;99.90
61412;DHT22;47278;49.732;7.690;2022-09-29T08:27:40;7.60;99.90
61412;DHT22;47278;49.732;7.690;2022-09-29T08:30:06;7.60;99.90
61412;DHT22;47278;49.732;7.690;2022-09-29T08:32:32;7.70;99.90
61412;DHT22;47278;49.732;7.690;2022-09-29T08:34:58;7.80;99.90
61412;DHT22;47278;49.732;7.690;2022-09-29T08:37:24;5.50;99.90
61412;DHT22;47278;49.732;7.690;2022-09-29T08:39:49;8.10;99.90
61412;DHT22;47278;49.732;7.690;2022-09-29T08:42:36;8.10;99.90
61412;DHT22;47278;49.732;7.690;2022-09-29T08:45:07;8.10;99.90
61412;DHT22;47278;49.732;7.690;2022-09-29T08:47:47;8.30;99.90
61412;DHT22;47278;49.732;7.690;2022-09-29T08:52:57;8.30;99.90
61412;DHT22;47278;49.732;7.690;2022-09-29T08:56:18;8.40;99.90
61412;DHT22;47278;49.732;7.690;2022-09-29T08:58:37;8.50;99.90
61412;DHT22;47278;49.732;7.690;2022-09-29T09:09:06;8.70;99.90
61412;DHT22;47278;49.732;7.690;2022-09-29T09:11:58;8.70;99.90
61412;DHT22;47278;49.732;7.690;2022-09-29T09:17:48;8.70;99.90
61412;DHT22;47278;49.732;7.690;2022-09-29T09:20:31;8.70;99.90
61412;DHT22;47278;49.732;7.690;2022-09-29T09:23:03;8.70;99.90
61412;DHT22;47278;49.732;7.690;2022-09-29T09:25:48;8.70;99.90
61412;DHT22;47278;49.732;7.690;2022-09-29T09:28:19;8.70;99.90
61412;DHT22;47278;49.732;7.690;2022-09-29T09:31:17;8.80;99.90
61412;DHT22;47278;49.732;7.690;2022-09-29T09:36:22;8.90;99.90
61412;DHT22;47278;49.732;7.690;2022-09-29T09:39:02;9.00;99.90
61412;DHT22;47278;49.732;7.690;2022-09-29T09:41:29;8.90;99.90
61412;DHT22;47278;49.732;7.690;2022-09-29T09:44:02;9.00;99.90
61412;DHT22;47278;49.732;7.690;2022-09-29T09:46:35;9.00;99.90
61412;DHT22;47278;49.732;7.690;2022-09-29T09:49:17;9.00;99.90
61412;DHT22;47278;49.732;7.690;2022-09-29T09:52:02;9.10;99.90
61412;DHT22;47278;49.732;7.690;2022-09-29T10:02:19;9.50;99.90
61412;DHT22;47278;49.732;7.690;2022-09-29T10:04:50;9.70;99.90
61412;DHT22;47278;49.732;7.690;2022-09-29T10:07:20;9.70;99.90
61412;DHT22;47278;49.732;7.690;2022-09-29T10:09:47;9.80;99.90
61412;DHT22;47278;49.732;7.690;2022-09-29T10:12:21;9.90;99.90
61412;DHT22;47278;49.732;7.690;2022-09-29T10:14:56;10.10;99.90
61412;DHT22;47278;49.732;7.690;2022-09-29T10:17:28;10.20;99.90
61412;DHT22;47278;49.732;7.690;2022-09-29T10:19:58;10.50;99.90
61412;DHT22;47278;49.732;7.690;2022-09-29T10:22:25;10.60;99.90
61412;DHT22;47278;49.732;7.690;2022-09-29T10:24:53;10.90;99.90
61412;DHT22;47278;49.732;7.690;2022-09-29T10:27:23;11.00;99.90
61412;DHT22;47278;49.732;7.690;2022-09-29T10:29:52;11.00;99.90
61412;DHT22;47278;49.732;7.690;2022-09-29T10:32:24;11.20;99.90
61412;DHT22;47278;49.732;7.690;2022-09-29T10:35:00;11.10;99.90
61412;DHT22;47278;49.732;7.690;2022-09-29T10:42:41;11.60;99.90
61412;DHT22;47278;49.732;7.690;2022-09-29T10:45:22;11.60;99.90
61412;DHT22;47278;49.732;7.690;2022-09-29T10:48:10;11.70;99.90
61412;DHT22;47278;49.732;7.690;2022-09-29T10:50:54;11.90;99.90
61412;DHT22;47278;49.732;7.690;2022-09-29T10:53:22;11.80;99.90
61412;DHT22;47278;49.732;7.690;2022-09-29T10:55:52;12.00;99.90
61412;DHT22;47278;49.732;7.690;2022-09-29T10:58:24;12.40;99.90
61412;DHT22;47278;49.732;7.690;2022-09-29T11:01:04;12.80;99.90
61412;DHT22;47278;49.732;7.690;2022-09-29T11:03:32;13.00;99.90
61412;DHT22;47278;49.732;7.690;2022-09-29T11:06:11;13.00;99.90
61412;DHT22;47278;49.732;7.690;2022-09-29T11:09:25;13.30;99.90
61412;DHT22;47278;49.732;7.690;2022-09-29T11:14:28;13.30;99.90
61412;DHT22;47278;49.732;7.690;2022-09-29T11:16:56;13.50;99.90
61412;DHT22;47278;49.732;7.690;2022-09-29T11:19:22;14.60;99.90
61412;DHT22;47278;49.732;7.690;2022-09-29T11:21:59;13.30;99.90
61412;DHT22;47278;49.732;7.690;2022-09-29T11:27:42;13.40;99.90
61412;DHT22;47278;49.732;7.690;2022-09-29T11:30:26;13.40;99.90
61412;DHT22;47278;49.732;7.690;2022-09-29T11:36:07;13.60;99.90
61412;DHT22;47278;49.732;7.690;2022-09-29T11:38:51;13.60;99.90
61412;DHT22;47278;49.732;7.690;2022-09-29T11:41:43;13.70;99.90
61412;DHT22;47278;49.732;7.690;2022-09-29T11:52:16;14.00;99.90
61412;DHT22;47278;49.732;7.690;2022-09-29T11:54:53;14.00;99.90
61412;DHT22;47278;49.732;7.690;2022-09-29T11:57:58;13.80;99.90
61412;DHT22;47278;49.732;7.690;2022-09-29T12:14:21;13.30;99.90
61412;DHT22;47278;49.732;7.690;2022-09-29T12:16:53;13.30;99.90
61412;DHT22;47278;49.732;7.690;2022-09-29T12:19:25;13.40;99.90
61412;DHT22;47278;49.732;7.690;2022-09-29T12:21:54;13.50;99.90
61412;DHT22;47278;49.732;7.690;2022-09-29T12:24:34;13.60;99.90
61412;DHT22;47278;49.732;7.690;2022-09-29T12:27:06;13.70;99.90
61412;DHT22;47278;49.732;7.690;2022-09-29T12:29:55;13.70;99.90
61412;DHT22;47278;49.732;7.690;2022-09-29T12:32:27;13.80;99.90
61412;DHT22;47278;49.732;7.690;2022-09-29T12:35:01;13.70;99.90
61412;DHT22;47278;49.732;7.690;2022-09-29T12:37:40;13.80;99.90
61412;DHT22;47278;49.732;7.690;2022-09-29T12:40:31;14.00;99.90
61412;DHT22;47278;49.732;7.690;2022-09-29T12:43:16;14.10;99.90
61412;DHT22;47278;49.732;7.690;2022-09-29T12:45:58;14.40;99.90
61412;DHT22;47278;49.732;7.690;2022-09-29T12:54:16;14.60;99.90
61412;DHT22;47278;49.732;7.690;2022-09-29T12:57:09;14.30;99.90
61412;DHT22;47278;49.732;7.690;2022-09-29T12:59:42;14.10;99.90
61412;DHT22;47278;49.732;7.690;2022-09-29T13:05:22;14.30;99.90
61412;DHT22;47278;49.732;7.690;2022-09-29T13:15:25;14.40;99.90
61412;DHT22;47278;49.732;7.690;2022-09-29T13:23:16;14.50;99.90
61412;DHT22;47278;49.732;7.690;2022-09-29T13:26:07;14.80;99.90
61412;DHT22;47278;49.732;7.690;2022-09-29T13:28:45;14.90;99.90
61412;DHT22;47278;49.732;7.690;2022-09-29T13:31:17;14.90;99.90
61412;DHT22;47278;49.732;7.690;2022-09-29T13:33:47;15.40;99.90
61412;DHT22;47278;49.732;7.690;2022-09-29T13:36:27;15.40;99.90
61412;DHT22;47278;49.732;7.690;2022-09-29T13:38:55;15.30;99.90
61412;DHT22;47278;49.732;7.690;2022-09-29T13:59:25;16.50;99.90
61412;DHT22;47278;49.732;7.690;2022-09-29T14:01:53;16.60;99.90
61412;DHT22;47278;49.732;7.690;2022-09-29T14:04:41;15.90;99.90
61412;DHT22;47278;49.732;7.690;2022-09-29T14:07:33;15.50;99.90
61412;DHT22;47278;49.732;7.690;2022-09-29T14:13:05;16.10;99.90
61412;DHT22;47278;49.732;7.690;2022-09-29T14:15:34;16.10;99.90
61412;DHT22;47278;49.732;7.690;2022-09-29T14:18:06;16.40;99.90
61412;DHT22;47278;49.732;7.690;2022-09-29T14:20:37;16.10;99.90
61412;DHT22;47278;49.732;7.690;2022-09-29T14:23:07;16.10;99.90
61412;DHT22;47278;49.732;7.690;2022-09-29T14:25:48;16.40;99.90
61412;DHT22;47278;49.732;7.690;2022-09-29T14:28:24;16.60;99.90
61412;DHT22;47278;49.732;7.690;2022-09-29T14:30:56;17.00;99.90
61412;DHT22;47278;49.732;7.690;2022-09-29T14:33:39;16.60;99.90
61412;DHT22;47278;49.732;7.690;2022-09-29T14:36:12;16.00;99.90
61412;DHT22;47278;49.732;7.690;2022-09-29T14:38:44;15.50;99.90
61412;DHT22;47278;49.732;7.690;2022-09-29T14:43:45;14.90;99.90
61412;DHT22;47278;49.732;7.690;2022-09-29T15:01:14;14.40;99.90
61412;DHT22;47278;49.732;7.690;2022-09-29T15:03:48;14.30;99.90
61412;DHT22;47278;49.732;7.690;2022-09-29T15:06:16;14.20;99.90
61412;DHT22;47278;49.732;7.690;2022-09-29T15:09:14;13.90;99.90
61412;DHT22;47278;49.732;7.690;2022-09-29T15:11:43;13.70;99.90
61412;DHT22;47278;49.732;7.690;2022-09-29T15:14:30;13.50;99.90
61412;DHT22;47278;49.732;7.690;2022-09-29T15:19:55;13.40;99.90
61412;DHT22;47278;49.732;7.690;2022-09-29T15:25:52;13.30;99.90
61412;DHT22;47278;49.732;7.690;2022-09-29T15:30:38;13.40;99.90
61412;DHT22;47278;49.732;7.690;2022-09-29T15:33:26;13.40;99.90
61412;DHT22;47278;49.732;7.690;2022-09-29T15:36:16;13.30;99.90
61412;DHT22;47278;49.732;7.690;2022-09-29T15:38:43;13.20;99.90
61412;DHT22;47278;49.732;7.690;2022-09-29T15:43:56;13.10;99.90
61412;DHT22;47278;49.732;7.690;2022-09-29T15:46:38;13.10;99.90
61412;DHT22;47278;49.732;7.690;2022-09-29T15:49:11;13.20;99.90
61412;DHT22;47278;49.732;7.690;2022-09-29T15:51:38;13.10;99.90
61412;DHT22;47278;49.732;7.690;2022-09-29T15:54:05;13.20;99.90
61412;DHT22;47278;49.732;7.690;2022-09-29T15:56:36;13.20;99.90
61412;DHT22;47278;49.732;7.690;2022-09-29T15:59:54;13.10;99.90
61412;DHT22;47278;49.732;7.690;2022-09-29T16:02:44;13.00;99.90
61412;DHT22;47278;49.732;7.690;2022-09-29T16:05:12;12.90;99.90
61412;DHT22;47278;49.732;7.690;2022-09-29T16:07:47;12.80;99.90
61412;DHT22;47278;49.732;7.690;2022-09-29T16:10:16;12.70;99.90
61412;DHT22;47278;49.732;7.690;2022-09-29T16:12:57;12.60;99.90
61412;DHT22;47278;49.732;7.690;2022-09-29T16:15:32;12.60;99.90
61412;DHT22;47278;49.732;7.690;2022-09-29T16:18:19;12.50;99.90
61412;DHT22;47278;49.732;7.690;2022-09-29T16:20:46;12.50;99.90
61412;DHT22;47278;49.732;7.690;2022-09-29T16:28:37;12.40;99.90
61412;DHT22;47278;49.732;7.690;2022-09-29T16:31:14;12.30;99.90
61412;DHT22;47278;49.732;7.690;2022-09-29T16:33:46;12.40;99.90
61412;DHT22;47278;49.732;7.690;2022-09-29T16:36:28;12.40;99.90
61412;DHT22;47278;49.732;7.690;2022-09-29T16:38:58;12.40;99.90
61412;DHT22;47278;49.732;7.690;2022-09-29T16:49:27;12.30;99.90
61412;DHT22;47278;49.732;7.690;2022-09-29T16:51:59;12.20;99.90
61412;DHT22;47278;49.732;7.690;2022-09-29T16:54:33;12.20;99.90
61412;DHT22;47278;49.732;7.690;2022-09-29T16:57:25;12.20;99.90
61412;DHT22;47278;49.732;7.690;2022-09-29T17:00:29;12.10;99.90
61412;DHT22;47278;49.732;7.690;2022-09-29T17:02:51;12.10;99.90
61412;DHT22;47278;49.732;7.690;2022-09-29T17:05:17;11.90;99.90
61412;DHT22;47278;49.732;7.690;2022-09-29T17:07:43;11.80;99.90
61412;DHT22;47278;49.732;7.690;2022-09-29T17:10:15;11.70;99.90
61412;DHT22;47278;49.732;7.690;2022-09-29T17:12:42;11.50;99.90
61412;DHT22;47278;49.732;7.690;2022-09-29T17:15:12;11.40;99.90
61412;DHT22;47278;49.732;7.690;2022-09-29T17:17:38;11.30;99.90
61412;DHT22;47278;49.732;7.690;2022-09-29T17:20:11;11.20;99.90
61412;DHT22;47278;49.732;7.690;2022-09-29T17:22:38;11.10;99.90
61412;DHT22;47278;49.732;7.690;2022-09-29T17:25:05;10.80;99.90
61412;DHT22;47278;49.732;7.690;2022-09-29T17:27:31;10.60;99.90
61412;DHT22;47278;49.732;7.690;2022-09-29T17:30:19;10.50;99.90
61412;DHT22;47278;49.732;7.690;2022-09-29T17:32:48;10.40;99.90
61412;DHT22;47278;49.732;7.690;2022-09-29T17:35:14;10.30;99.90
61412;DHT22;47278;49.732;7.690;2022-09-29T17:37:41;10.10;99.90
61412;DHT22;47278;49.732;7.690;2022-09-29T17:40:28;9.90;99.90
61412;DHT22;47278;49.732;7.690;2022-09-29T17:42:55;10.00;99.90
61412;DHT22;47278;49.732;7.690;2022-09-29T17:45:24;9.80;99.90
61412;DHT22;47278;49.732;7.690;2022-09-29T17:47:50;9.70;99.90
61412;DHT22;47278;49.732;7.690;2022-09-29T17:50:33;9.60;99.90
61412;DHT22;47278;49.732;7.690;2022-09-29T17:53:01;9.60;99.90
61412;DHT22;47278;49.732;7.690;2022-09-29T17:55:30;9.50;99.90
61412;DHT22;47278;49.732;7.690;2022-09-29T17:57:56;9.40;99.90
61412;DHT22;47278;49.732;7.690;2022-09-29T18:00:26;9.40;99.90
61412;DHT22;47278;49.732;7.690;2022-09-29T18:02:52;9.30;99.90
61412;DHT22;47278;49.732;7.690;2022-09-29T18:05:26;9.10;99.90
61412;DHT22;47278;49.732;7.690;2022-09-29T18:07:54;9.20;99.90
61412;DHT22;47278;49.732;7.690;2022-09-29T18:10:33;9.10;99.90
61412;DHT22;47278;49.732;7.690;2022-09-29T18:12:59;9.00;99.90
61412;DHT22;47278;49.732;7.690;2022-09-29T18:15:26;9.00;99.90
61412;DHT22;47278;49.732;7.690;2022-09-29T18:17:56;8.90;99.90
61412;DHT22;47278;49.732;7.690;2022-09-29T18:20:23;8.70;99.90
61412;DHT22;47278;49.732;7.690;2022-09-29T18:22:50;8.60;99.90
61412;DHT22;47278;49.732;7.690;2022-09-29T18:25:17;8.50;99.90
61412;DHT22;47278;49.732;7.690;2022-09-29T18:27:44;8.40;99.90
61412;DHT22;47278;49.732;7.690;2022-09-29T18:30:30;8.40;99.90
61412;DHT22;47278;49.732;7.690;2022-09-29T18:32:57;8.30;99.90
61412;DHT22;47278;49.732;7.690;2022-09-29T18:35:29;8.20;99.90
61412;DHT22;47278;49.732;7.690;2022-09-29T18:37:57;8.20;99.90
61412;DHT22;47278;49.732;7.690;2022-09-29T18:40:23;8.10;99.90
61412;DHT22;47278;49.732;7.690;2022-09-29T18:42:51;8.00;99.90
61412;DHT22;47278;49.732;7.690;2022-09-29T18:45:19;8.00;99.90
61412;DHT22;47278;49.732;7.690;2022-09-29T18:47:49;7.90;99.90
61412;DHT22;47278;49.732;7.690;2022-09-29T18:52:45;7.70;99.90
61412;DHT22;47278;49.732;7.690;2022-09-29T18:55:13;7.70;99.90
61412;DHT22;47278;49.732;7.690;2022-09-29T18:57:39;7.60;99.90
61412;DHT22;47278;49.732;7.690;2022-09-29T19:00:08;7.60;99.90
61412;DHT22;47278;49.732;7.690;2022-09-29T19:02:36;7.70;99.90
61412;DHT22;47278;49.732;7.690;2022-09-29T19:05:03;7.60;99.90
61412;DHT22;47278;49.732;7.690;2022-09-29T19:07:29;7.50;99.90
61412;DHT22;47278;49.732;7.690;2022-09-29T19:09:55;7.50;99.90
61412;DHT22;47278;49.732;7.690;2022-09-29T19:12:21;7.40;99.90
61412;DHT22;47278;49.732;7.690;2022-09-29T19:14:52;7.40;99.90